Time;durP1;ratioP1;P1;durP2;ratioP2;P2;SDS_P1;SDS_P2;PMS_P1;PMS_P2;Temp;Humidity;BMP_temperature;BMP_pressure;BME280_temperature;BME280_humidity;BME280_pressure;Samples;Min_cycle;Max_cycle;Signal;HPM_P1;HPM_P2
2023/02/09 00:01:25;;;;;;;17.20;3.40;;;-3.10;99.90;;;;;;4818934;29;20628;-90
2023/02/09 00:03:51;;;;;;;7.97;2.80;;;-2.90;99.90;;;;;;4822571;29;20061;-90
2023/02/09 00:06:20;;;;;;;9.53;2.90;;;-3.30;99.90;;;;;;4822471;29;20041;-90
2023/02/09 00:08:45;;;;;;;10.90;3.17;;;-2.90;99.90;;;;;;4824036;29;20042;-90
2023/02/09 00:13:21;;;;;;;8.57;2.83;;;-2.60;99.90;;;;;;4833944;29;20532;-90
2023/02/09 00:14:07;;;;;;;10.60;2.83;;;-3.00;99.90;;;;;;4823874;29;20042;-90
2023/02/09 00:16:32;;;;;;;9.73;3.30;;;-2.90;99.90;;;;;;4826962;29;20121;-90
2023/02/09 00:19:01;;;;;;;8.03;2.97;;;-2.10;99.90;;;;;;4822275;29;20026;-90
2023/02/09 00:21:26;;;;;;;13.33;3.20;;;-3.00;99.90;;;;;;4838377;29;20034;-90
2023/02/09 00:23:52;;;;;;;7.27;3.40;;;-3.00;99.90;;;;;;4821646;29;20121;-89
2023/02/09 00:26:23;;;;;;;11.03;3.47;;;-3.40;99.90;;;;;;4820912;29;20030;-90
2023/02/09 00:28:48;;;;;;;10.53;3.20;;;-2.60;99.90;;;;;;4821653;29;20030;-90
2023/02/09 00:31:20;;;;;;;8.47;3.33;;;-3.60;99.90;;;;;;4817057;29;20447;-90
2023/02/09 00:33:46;;;;;;;9.18;3.13;;;-3.20;99.90;;;;;;4816692;29;20034;-90
2023/02/09 00:36:13;;;;;;;11.10;3.93;;;-3.20;99.90;;;;;;4820743;29;20038;-90
2023/02/09 00:38:40;;;;;;;9.37;3.00;;;-3.00;99.90;;;;;;4819729;29;20058;-90
2023/02/09 00:41:06;;;;;;;9.30;3.07;;;-2.50;99.90;;;;;;4820622;29;20544;-90
2023/02/09 00:43:33;;;;;;;10.50;2.80;;;-3.20;99.90;;;;;;4818473;29;20062;-90
2023/02/09 00:46:01;;;;;;;6.83;2.97;;;-3.10;99.90;;;;;;4819694;29;20109;-90
2023/02/09 00:48:27;;;;;;;10.17;2.63;;;-1.80;99.90;;;;;;4818634;29;20492;-91
2023/02/09 00:50:53;;;;;;;8.80;3.57;;;-3.20;99.90;;;;;;4820508;29;20079;-90
2023/02/09 00:53:20;;;;;;;10.50;2.97;;;-3.10;99.90;;;;;;4835960;29;20034;-90
2023/02/09 00:55:46;;;;;;;7.60;3.17;;;-3.10;99.90;;;;;;4820853;29;20057;-89
2023/02/09 00:58:12;;;;;;;13.53;3.13;;;-3.20;99.90;;;;;;4817808;29;20066;-91
2023/02/09 01:00:37;;;;;;;8.00;2.87;;;-3.40;99.90;;;;;;4820735;29;20146;-91
2023/02/09 01:03:03;;;;;;;10.70;2.83;;;-3.20;99.90;;;;;;4820683;29;20087;-90
2023/02/09 01:05:29;;;;;;;11.03;2.67;;;-3.30;99.90;;;;;;4821123;29;20476;-90
2023/02/09 01:07:55;;;;;;;16.07;3.00;;;-3.10;99.90;;;;;;4819584;29;20385;-90
2023/02/09 01:10:20;;;;;;;9.07;3.00;;;-3.40;99.90;;;;;;4820589;29;20035;-90
2023/02/09 01:12:47;;;;;;;11.33;3.33;;;-3.40;99.90;;;;;;4822064;29;20442;-90
2023/02/09 01:15:13;;;;;;;7.83;2.83;;;-3.40;99.90;;;;;;4820420;29;20027;-90
2023/02/09 01:17:39;;;;;;;10.73;3.30;;;-3.40;99.90;;;;;;4820719;29;20491;-89
2023/02/09 01:20:07;;;;;;;12.50;3.63;;;-3.40;99.90;;;;;;4821798;29;20030;-90
2023/02/09 01:22:38;;;;;;;11.17;3.23;;;-3.30;99.90;;;;;;4820043;29;20167;-90
2023/02/09 01:25:05;;;;;;;9.27;2.80;;;-2.50;99.90;;;;;;4820500;29;20570;-91
2023/02/09 01:27:31;;;;;;;12.30;3.00;;;-3.30;99.90;;;;;;4820396;29;20022;-90
2023/02/09 01:29:57;;;;;;;9.43;3.23;;;-3.50;99.90;;;;;;4816796;29;20109;-91
2023/02/09 01:32:22;;;;;;;10.27;3.30;;;-3.30;99.90;;;;;;4806509;29;20065;-90
2023/02/09 01:34:52;;;;;;;8.70;2.57;;;-3.70;99.90;;;;;;4822027;29;20037;-90
2023/02/09 01:37:19;;;;;;;11.97;2.30;;;-3.50;99.90;;;;;;4819959;29;20062;-90
2023/02/09 01:40:03;;;;;;;9.30;2.83;;;-3.30;99.90;;;;;;4821363;29;20038;-89
2023/02/09 01:42:31;;;;;;;7.20;2.57;;;-3.60;99.90;;;;;;4832522;29;20059;-90
2023/02/09 01:45:18;;;;;;;7.10;2.63;;;-3.60;99.90;;;;;;4820115;29;20064;-90
2023/02/09 01:47:49;;;;;;;8.50;2.57;;;-3.10;99.90;;;;;;4828548;29;20046;-90
2023/02/09 01:50:15;;;;;;;10.50;3.77;;;-3.30;99.90;;;;;;4819055;29;20042;-90
2023/02/09 01:52:42;;;;;;;11.07;3.53;;;-3.50;99.90;;;;;;4829530;29;20027;-90
2023/02/09 01:55:13;;;;;;;10.67;3.03;;;-3.40;99.90;;;;;;4821927;29;20027;-90
2023/02/09 01:57:46;;;;;;;12.83;2.97;;;-3.50;99.90;;;;;;4824065;29;20035;-90
2023/02/09 02:00:18;;;;;;;5.77;2.37;;;-3.50;99.90;;;;;;4839193;29;20023;-90
2023/02/09 02:02:51;;;;;;;6.37;2.13;;;-3.00;99.90;;;;;;4816844;29;20037;-90
2023/02/09 02:05:17;;;;;;;9.93;3.23;;;-3.50;99.90;;;;;;4823231;29;20121;-90
2023/02/09 02:08:05;;;;;;;8.17;2.67;;;-3.40;99.90;;;;;;4822919;29;20078;-90
2023/02/09 02:10:31;;;;;;;9.23;3.07;;;-3.50;99.90;;;;;;4838652;29;20037;-90
2023/02/09 02:12:57;;;;;;;12.10;3.40;;;-3.70;99.90;;;;;;4839304;29;20483;-89
2023/02/09 02:15:29;;;;;;;11.97;4.07;;;-3.50;99.90;;;;;;4834256;29;20094;-90
2023/02/09 02:18:18;;;;;;;9.98;2.90;;;-3.70;99.90;;;;;;4824031;29;20026;-89
2023/02/09 02:20:58;;;;;;;8.40;3.30;;;-3.60;99.90;;;;;;4833051;29;20031;-90
2023/02/09 02:23:49;;;;;;;6.87;3.17;;;-3.60;99.90;;;;;;4835776;29;20076;-90
2023/02/09 02:26:33;;;;;;;9.80;3.17;;;-3.60;99.90;;;;;;4841184;29;20115;-87
2023/02/09 02:29:16;;;;;;;9.90;3.47;;;-3.60;99.90;;;;;;4825068;29;20022;-87
2023/02/09 02:32:14;;;;;;;11.70;3.77;;;-3.60;99.90;;;;;;4829615;29;20050;-88
2023/02/09 02:34:42;;;;;;;10.37;3.37;;;-3.70;99.90;;;;;;4823616;29;20121;-88
2023/02/09 02:37:29;;;;;;;9.87;3.50;;;-3.80;99.90;;;;;;4838585;29;20034;-87
2023/02/09 02:40:09;;;;;;;10.03;3.27;;;-3.70;99.90;;;;;;4819055;29;20046;-87
2023/02/09 02:42:54;;;;;;;10.53;3.53;;;-3.80;99.90;;;;;;4837137;29;20061;-90
2023/02/09 02:45:34;;;;;;;11.13;4.03;;;-3.80;99.90;;;;;;4824163;29;20037;-89
2023/02/09 02:48:03;;;;;;;13.17;3.37;;;-3.80;99.90;;;;;;4837415;29;20052;-90
2023/02/09 02:50:31;;;;;;;9.40;3.63;;;-3.90;99.90;;;;;;4851907;29;20037;-89
2023/02/09 02:53:02;;;;;;;9.33;2.60;;;-4.00;99.90;;;;;;4850281;29;20031;-90
2023/02/09 02:55:31;;;;;;;12.67;4.13;;;-3.90;99.90;;;;;;4844053;29;20026;-90
2023/02/09 02:58:01;;;;;;;8.83;2.80;;;-4.00;99.90;;;;;;4831413;29;20033;-90
2023/02/09 03:00:43;;;;;;;9.83;3.40;;;-4.00;99.90;;;;;;4822366;29;20038;-90
2023/02/09 03:03:25;;;;;;;11.30;3.60;;;-3.80;99.90;;;;;;4823652;29;20053;-90
2023/02/09 03:05:55;;;;;;;9.35;3.50;;;-3.80;99.90;;;;;;4823527;29;20030;-90
2023/02/09 03:08:20;;;;;;;9.63;3.00;;;-3.90;99.90;;;;;;4837668;29;20049;-90
2023/02/09 03:10:49;;;;;;;9.60;3.90;;;-2.70;99.90;;;;;;4823549;29;20019;-90
2023/02/09 03:13:37;;;;;;;11.27;4.13;;;-4.20;99.90;;;;;;4821241;29;20026;-89
2023/02/09 03:16:26;;;;;;;7.50;3.33;;;-4.80;99.90;;;;;;4817884;29;20491;-90
2023/02/09 03:19:13;;;;;;;11.33;3.23;;;-3.90;99.90;;;;;;4822164;29;20038;-90
2023/02/09 03:21:57;;;;;;;9.67;3.43;;;-3.90;99.90;;;;;;4822441;29;20038;-90
2023/02/09 03:24:26;;;;;;;12.13;3.57;;;-3.90;99.90;;;;;;4821297;29;20030;-90
2023/02/09 03:27:14;;;;;;;12.90;4.33;;;-3.80;99.90;;;;;;4836435;29;20023;-90
2023/02/09 03:29:42;;;;;;;9.00;3.57;;;-3.80;99.90;;;;;;4822814;29;20030;-90
2023/02/09 03:32:08;;;;;;;14.10;4.10;;;-3.90;99.90;;;;;;4814095;29;20034;-90
2023/02/09 03:34:34;;;;;;;11.43;4.27;;;-3.70;99.90;;;;;;4821651;29;20038;-90
2023/02/09 03:37:00;;;;;;;15.27;4.00;;;-3.90;99.90;;;;;;4835621;29;20381;-89
2023/02/09 03:39:26;;;;;;;9.73;3.63;;;-4.00;99.90;;;;;;4818927;29;20042;-90
2023/02/09 03:41:51;;;;;;;13.60;3.87;;;-4.30;99.90;;;;;;4813757;29;20038;-90
2023/02/09 03:44:26;;;;;;;14.80;3.97;;;-4.00;99.90;;;;;;4822197;29;20388;-91
2023/02/09 03:46:59;;;;;;;11.40;3.93;;;-3.90;99.90;;;;;;4821349;29;20025;-90
2023/02/09 03:49:27;;;;;;;9.63;3.20;;;-3.80;99.90;;;;;;4819863;29;20038;-88
2023/02/09 03:51:52;;;;;;;9.53;4.00;;;-3.80;99.90;;;;;;4822149;29;20487;-90
2023/02/09 03:54:21;;;;;;;11.03;3.70;;;-4.10;99.90;;;;;;4823285;29;20188;-91
2023/02/09 03:56:47;;;;;;;13.63;4.43;;;-3.70;99.90;;;;;;4814236;29;20034;-91
2023/02/09 03:59:20;;;;;;;10.33;4.27;;;-5.10;99.90;;;;;;4823412;29;20030;-91
2023/02/09 04:01:49;;;;;;;11.67;4.70;;;-1.80;99.90;;;;;;4823262;29;20504;-91
2023/02/09 04:04:14;;;;;;;11.17;4.13;;;-2.40;99.90;;;;;;4823015;29;20042;-91
2023/02/09 04:06:42;;;;;;;12.30;4.07;;;-2.90;99.90;;;;;;4823722;29;20046;-90
2023/02/09 04:09:09;;;;;;;13.43;4.07;;;-3.20;99.90;;;;;;4815340;29;20038;-91
2023/02/09 04:11:43;;;;;;;15.57;4.30;;;-2.60;99.90;;;;;;4823654;29;20026;-91
2023/02/09 04:14:11;;;;;;;15.40;4.47;;;-4.20;99.90;;;;;;4823469;29;20054;-91
2023/02/09 04:16:39;;;;;;;12.13;3.23;;;-2.70;99.90;;;;;;4822967;29;20042;-91
2023/02/09 04:19:05;;;;;;;9.77;3.17;;;-3.60;99.90;;;;;;4822285;29;20488;-91
2023/02/09 04:21:31;;;;;;;11.90;4.40;;;-2.40;99.90;;;;;;4823335;29;20046;-90
2023/02/09 04:23:57;;;;;;;10.87;3.43;;;-5.00;99.90;;;;;;4824027;29;20030;-90
2023/02/09 04:26:23;;;;;;;16.47;4.17;;;-5.20;99.90;;;;;;4822666;29;20105;-90
2023/02/09 04:28:51;;;;;;;9.87;4.47;;;-3.30;99.90;;;;;;4823367;29;20118;-91
2023/02/09 04:31:17;;;;;;;12.30;3.93;;;-1.20;99.90;;;;;;4822706;29;20027;-90
2023/02/09 04:33:43;;;;;;;12.77;4.70;;;-1.90;99.90;;;;;;4820865;29;20052;-90
2023/02/09 04:36:09;;;;;;;11.67;3.53;;;-4.50;99.90;;;;;;4822757;29;20514;-91
2023/02/09 04:38:35;;;;;;;13.10;4.03;;;-4.80;99.90;;;;;;4823468;29;20030;-90
2023/02/09 04:41:09;;;;;;;11.20;4.03;;;-3.30;99.90;;;;;;4824669;29;20037;-91
2023/02/09 04:43:35;;;;;;;12.40;3.80;;;-2.40;99.90;;;;;;4827324;29;20053;-90
2023/02/09 04:46:03;;;;;;;14.63;4.20;;;-4.10;99.90;;;;;;4827276;29;20065;-92
2023/02/09 04:48:29;;;;;;;13.17;4.40;;;-3.00;99.90;;;;;;4825579;29;20026;-91
2023/02/09 04:50:55;;;;;;;13.43;5.60;;;-2.40;99.90;;;;;;4812809;29;20038;-90
2023/02/09 04:53:21;;;;;;;15.33;3.97;;;-3.70;99.90;;;;;;4834940;29;20510;-90
2023/02/09 04:55:51;;;;;;;13.73;4.63;;;-2.00;99.90;;;;;;4815289;29;20037;-90
2023/02/09 05:01:21;;;;;;;11.53;3.70;;;-3.50;99.90;;;;;;4824084;29;20519;-90
2023/02/09 05:03:46;;;;;;;10.20;3.63;;;-2.60;99.90;;;;;;4822803;29;20038;-89
2023/02/09 05:06:12;;;;;;;12.60;4.63;;;-2.70;99.90;;;;;;4822801;29;20532;-89
2023/02/09 14:27:38;;;;;;;13.37;5.10;;;5.10;99.90;;;;;;1224458;27;20535;-87
2023/02/09 14:30:25;;;;;;;16.73;5.77;;;7.20;99.90;;;;;;4846546;29;20041;-88
2023/02/09 14:32:58;;;;;;;14.07;4.83;;;5.70;99.90;;;;;;4839868;29;20029;-87
2023/02/09 14:35:39;;;;;;;19.83;6.07;;;5.20;99.90;;;;;;4823973;29;20034;-88
2023/02/09 14:38:05;;;;;;;19.47;6.10;;;6.60;99.90;;;;;;4822292;29;20062;-87
2023/02/09 14:40:33;;;;;;;17.00;5.53;;;6.70;99.90;;;;;;4832262;29;20035;-89
2023/02/09 14:43:10;;;;;;;17.23;5.40;;;7.90;99.90;;;;;;4840343;29;20050;-86
2023/02/09 14:45:59;;;;;;;15.57;5.80;;;7.10;99.90;;;;;;4850738;29;20034;-87
2023/02/09 14:48:29;;;;;;;16.10;5.50;;;6.10;99.90;;;;;;4839435;29;20099;-86
2023/02/09 14:51:01;;;;;;;18.17;5.97;;;;;;;;;;4834194;29;20039;-87
2023/02/09 14:53:33;;;;;;;17.47;6.50;;;;;;;;;;4845806;29;20704;-87
2023/02/09 14:55:59;;;;;;;;;;;;;;;;;;4841904;29;20034;-88
2023/02/09 14:58:25;;;;;;;13.30;6.13;;;;;;;;;;4830048;29;20000;-86
2023/02/09 15:00:53;;;;;;;14.40;5.90;;;7.90;98.60;;;;;;4817043;29;20042;-88
2023/02/09 15:03:19;;;;;;;16.45;6.38;;;8.10;98.30;;;;;;4822735;29;20042;-86
2023/02/09 15:05:51;;;;;;;17.17;7.00;;;8.30;97.20;;;;;;4825107;29;20594;-85
2023/02/09 15:08:20;;;;;;;18.60;6.60;;;8.50;96.90;;;;;;4823803;29;20610;-87
2023/02/09 15:10:49;;;;;;;16.63;6.63;;;9.10;96.20;;;;;;4824707;29;20058;-86
2023/02/09 15:13:26;;;;;;;17.15;6.68;;;8.30;95.50;;;;;;4814747;29;20176;-87
2023/02/09 15:15:52;;;;;;;16.70;6.22;;;8.30;95.70;;;;;;4815861;29;20034;-87
2023/02/09 15:18:27;;;;;;;19.33;6.90;;;8.40;95.60;;;;;;4813263;29;20042;-87
2023/02/09 15:20:53;;;;;;;18.45;6.60;;;8.40;95.30;;;;;;4812392;29;20075;-88
2023/02/09 15:23:19;;;;;;;14.32;6.03;;;8.50;94.90;;;;;;4821056;29;20043;-89
2023/02/09 15:25:44;;;;;;;17.55;6.60;;;9.00;94.70;;;;;;4820591;29;20044;-88
2023/02/09 15:28:26;;;;;;;15.18;6.18;;;8.90;94.50;;;;;;4822592;29;20033;-88
2023/02/09 15:30:53;;;;;;;16.05;6.57;;;7.90;94.70;;;;;;4826220;29;20117;-88
2023/02/09 15:33:27;;;;;;;14.10;6.45;;;7.10;95.40;;;;;;4818706;29;20528;-88
2023/02/09 15:35:55;;;;;;;18.40;5.95;;;6.60;96.50;;;;;;4823555;29;20039;-87
2023/02/09 15:38:21;;;;;;;15.37;5.70;;;5.60;97.50;;;;;;4815235;29;20027;-87
2023/02/09 15:49:01;;;;;;;20.50;6.27;;;3.90;99.90;;;;;;4814421;29;20045;-86
2023/02/09 15:51:32;;;;;;;17.13;5.97;;;3.70;99.90;;;;;;4822565;29;20030;-87
2023/02/09 15:54:03;;;;;;;22.27;7.93;;;3.50;99.90;;;;;;4826787;29;20088;-88
2023/02/09 15:56:29;;;;;;;18.93;6.53;;;3.40;99.90;;;;;;4829508;29;20069;-88
2023/02/09 15:59:02;;;;;;;17.23;6.50;;;3.50;99.90;;;;;;4827580;29;20038;-89
2023/02/09 16:01:32;;;;;;;17.83;6.33;;;3.20;99.90;;;;;;4827654;29;20066;-89
2023/02/09 16:04:01;;;;;;;18.20;6.23;;;2.90;99.90;;;;;;4828027;29;20114;-89
2023/02/09 16:06:28;;;;;;;15.63;5.93;;;3.00;99.90;;;;;;4829276;29;20034;-89
2023/02/09 16:08:58;;;;;;;17.60;5.53;;;2.90;99.90;;;;;;4826718;29;20030;-89
2023/02/09 16:11:28;;;;;;;18.67;6.83;;;3.10;99.90;;;;;;4838162;29;20531;-89
2023/02/09 16:13:54;;;;;;;19.50;7.07;;;2.80;99.90;;;;;;4829976;29;20031;-89
2023/02/09 16:16:23;;;;;;;19.23;6.67;;;3.10;99.90;;;;;;4831456;29;20045;-89
2023/02/09 16:18:49;;;;;;;18.43;6.73;;;2.60;99.90;;;;;;4826413;29;20038;-87
2023/02/09 16:21:29;;;;;;;20.23;6.87;;;2.50;99.90;;;;;;4830546;29;20136;-90
2023/02/09 16:23:57;;;;;;;13.87;6.47;;;2.50;99.90;;;;;;4843354;29;20030;-90
2023/02/09 16:26:24;;;;;;;16.60;6.80;;;2.30;99.90;;;;;;4829501;29;20030;-88
2023/02/09 16:28:51;;;;;;;14.97;6.00;;;2.20;99.90;;;;;;4828675;29;20030;-87
2023/02/09 16:31:18;;;;;;;17.10;6.43;;;2.10;99.90;;;;;;4823952;29;20022;-88
2023/02/09 16:33:44;;;;;;;17.57;6.60;;;2.10;99.90;;;;;;4834591;29;20023;-88
2023/02/09 16:36:16;;;;;;;20.83;7.33;;;1.90;99.90;;;;;;4837191;29;20038;-88
2023/02/09 16:38:43;;;;;;;15.90;5.93;;;1.90;99.90;;;;;;4832490;29;20501;-88
2023/02/09 16:43:57;;;;;;;18.53;6.07;;;1.70;99.90;;;;;;4831167;29;20560;-89
2023/02/09 16:46:23;;;;;;;16.47;6.57;;;1.60;99.90;;;;;;4831415;29;20055;-88
2023/02/09 16:48:49;;;;;;;14.70;5.90;;;1.60;99.90;;;;;;4833525;29;20090;-87
2023/02/09 16:51:18;;;;;;;15.30;5.20;;;1.60;99.90;;;;;;4830505;29;20030;-89
2023/02/09 16:53:50;;;;;;;19.73;6.60;;;1.50;99.90;;;;;;4821688;29;20122;-89
2023/02/09 16:56:29;;;;;;;;;;;;;;;;;;;;;
2023/02/09 16:59:17;;;;;;;20.33;6.63;;;1.30;99.90;;;;;;4823638;29;20042;-91
2023/02/09 17:06:36;;;;;;;21.63;5.77;;;1.10;99.90;;;;;;4802322;29;20039;-91
2023/02/09 17:12:16;;;;;;;13.40;4.87;;;1.30;99.90;;;;;;4819767;29;19913;-90
2023/02/09 17:15:35;;;;;;;14.53;5.47;;;0.90;99.90;;;;;;4813941;29;20508;-90
2023/02/09 17:18:42;;;;;;;17.40;5.73;;;0.80;99.90;;;;;;4836470;29;20109;-90
2023/02/09 17:21:59;;;;;;;;;;;;;;;;;;;;;
2023/02/09 17:24:28;;;;;;;17.33;5.50;;;0.80;99.90;;;;;;4826422;29;20129;-91
2023/02/09 17:26:56;;;;;;;17.13;5.87;;;0.80;99.90;;;;;;4824107;29;20098;-91
2023/02/09 17:56:49;;;;;;;;;;;;;;;;;;;;;
2023/02/09 17:59:18;;;;;;;17.03;5.33;;;0.20;99.90;;;;;;4895123;29;20103;-89
2023/02/09 18:01:49;;;;;;;10.23;4.63;;;0.30;99.90;;;;;;4880336;29;20053;-90
2023/02/09 18:04:48;;;;;;;13.33;5.13;;;0.30;99.90;;;;;;4876134;29;20049;-90
2023/02/09 18:07:39;;;;;;;12.53;4.47;;;0.30;99.90;;;;;;4866707;29;20106;-90
2023/02/09 18:10:11;;;;;;;15.17;4.63;;;1.50;99.90;;;;;;4875642;29;20025;-90
2023/02/09 18:12:43;;;;;;;17.08;5.40;;;0.60;99.90;;;;;;4866762;29;20029;-90
2023/02/09 18:15:30;;;;;;;17.07;5.23;;;0.00;99.90;;;;;;4871947;29;20056;-89
2023/02/09 18:17:58;;;;;;;15.53;4.90;;;0.00;99.90;;;;;;4874607;29;20129;-89
2023/02/09 18:23:53;;;;;;;19.67;6.30;;;0.10;99.90;;;;;;4880669;29;20069;-90
2023/02/09 18:26:58;;;;;;;18.20;4.93;;;1.40;99.90;;;;;;4879828;29;20036;-92
2023/02/09 18:30:24;;;;;;;21.13;5.60;;;-0.40;99.90;;;;;;4878000;29;20120;-90
2023/02/09 18:33:02;;;;;;;16.40;4.70;;;-0.20;99.90;;;;;;4874953;29;20056;-90
2023/02/09 18:36:03;;;;;;;14.10;5.03;;;-0.40;99.90;;;;;;4883551;29;20025;-91
2023/02/09 18:38:43;;;;;;;15.77;5.47;;;-0.60;99.90;;;;;;4870943;29;20037;-89
2023/02/09 18:41:39;;;;;;;14.10;4.90;;;0.30;99.90;;;;;;4880655;29;20030;-89
2023/02/09 18:44:21;;;;;;;12.47;4.63;;;-0.10;99.90;;;;;;4881569;29;20062;-90
2023/02/09 18:47:42;;;;;;;17.02;4.55;;;-0.60;99.90;;;;;;4877109;29;20029;-90
2023/02/09 19:06:51;;;;;;;14.47;4.63;;;-0.80;99.90;;;;;;3003113;23;20057;-89
2023/02/09 19:09:32;;;;;;;9.20;4.47;;;-0.50;99.90;;;;;;4845022;29;20077;-89
2023/02/09 19:15:24;;;;;;;14.53;5.13;;;-0.60;99.90;;;;;;4846805;29;20049;-88
2023/02/09 19:18:38;;;;;;;;;;;;;;;;;;;;;
2023/02/09 19:21:53;;;;;;;;;;;;;;;;;;;;;
2023/02/09 19:24:27;;;;;;;11.37;3.80;;;-1.10;99.90;;;;;;4830336;29;20034;-89
2023/02/09 19:27:36;;;;;;;14.73;4.73;;;-1.00;99.90;;;;;;4829617;29;20034;-89
2023/02/09 19:30:11;;;;;;;15.20;5.70;;;-1.10;99.90;;;;;;4819734;29;20528;-89
2023/02/09 19:32:39;;;;;;;10.90;4.27;;;-1.10;99.90;;;;;;4829234;29;21368;-89
2023/02/09 19:35:08;;;;;;;16.83;5.40;;;-1.10;99.90;;;;;;4833495;29;20134;-89
2023/02/09 19:37:51;;;;;;;10.37;4.27;;;-1.20;99.90;;;;;;4822492;29;20042;-89
2023/02/09 19:40:20;;;;;;;;;;;-1.10;99.90;;;;;;4842063;29;20076;-88
2023/02/09 19:43:08;;;;;;;12.50;4.13;;;-1.20;99.90;;;;;;4837213;29;19940;-90
2023/02/09 19:45:37;;;;;;;14.40;4.57;;;-0.50;99.90;;;;;;4821103;29;20035;-89
2023/02/09 19:48:43;;;;;;;13.67;5.00;;;-0.60;99.90;;;;;;4824949;29;20063;-90
2023/02/09 19:51:09;;;;;;;12.03;4.23;;;-1.00;99.90;;;;;;4856097;29;20040;-89
2023/02/09 19:53:35;;;;;;;20.60;4.90;;;-0.90;99.90;;;;;;4834590;29;20495;-89
2023/02/09 19:56:15;;;;;;;15.63;6.37;;;-1.30;99.90;;;;;;4830928;29;20035;-88
2023/02/09 19:59:03;;;;;;;12.67;5.13;;;-1.30;99.90;;;;;;4831483;29;20078;-89
2023/02/09 20:01:31;;;;;;;16.17;5.30;;;-1.40;99.90;;;;;;4830321;29;20057;-90
2023/02/09 20:03:57;;;;;;;9.97;4.67;;;-1.00;99.90;;;;;;4833600;29;20074;-91
2023/02/09 20:06:23;;;;;;;12.63;4.70;;;-1.40;99.90;;;;;;4833443;29;20042;-91
2023/02/09 20:09:03;;;;;;;18.37;6.03;;;-1.10;99.90;;;;;;4833038;29;20030;-94
2023/02/09 20:11:37;;;;;;;16.20;5.57;;;-1.50;99.90;;;;;;4858018;29;20033;-93
2023/02/09 20:14:28;;;;;;;17.47;5.40;;;-1.50;99.90;;;;;;4866437;29;20018;-91
2023/02/09 20:17:17;;;;;;;13.17;5.60;;;-1.50;99.90;;;;;;4842978;29;20043;-93
2023/02/09 21:08:48;;;;;;;18.47;6.30;;;-1.70;99.90;;;;;;1230579;23;20338;-87
2023/02/09 21:11:35;;;;;;;16.30;5.17;;;-1.50;99.90;;;;;;4844412;29;20048;-89
2023/02/09 21:14:49;;;;;;;14.87;5.20;;;-1.10;99.90;;;;;;4862961;29;20036;-89
2023/02/09 21:21:28;;;;;;;11.53;4.17;;;-1.70;99.90;;;;;;4821672;29;20031;-91
2023/02/09 21:30:50;;;;;;;17.27;5.47;;;-1.90;99.90;;;;;;4820625;29;20044;-90
2023/02/09 23:26:06;;;;;;;18.73;5.93;;;-2.10;99.90;;;;;;4837054;29;20060;-92
2023/02/09 23:29:21;;;;;;;16.57;6.33;;;-2.10;99.90;;;;;;4843356;29;20030;-91
2023/02/09 23:35:27;;;;;;;13.93;5.60;;;-1.80;99.90;;;;;;4859516;29;20093;-91
2023/02/09 23:39:12;;;;;;;;;;;;;;;;;;;;;
2023/02/09 23:48:32;;;;;;;14.83;5.73;;;-2.20;99.90;;;;;;4774770;29;20041;-91
2023/02/09 23:54:53;;;;;;;;;;;;;;;;;;;;;
